Etusivu
METAR-TAF:

METAR-TAF

Lentoasemat :

Tunis, Tunisia

Leveyspiiri: 36-50N, Pituuspiiri: 010-14E, korkeus merenpinnasta: 3 m

Tämänhetkinen sää

Tämä raportti tehtiin 38 minuuttia sitten, kello 14.00 UTC
Tuuli 16 kn luoteesta
Lämpötila 31°C
Kosteus 33%
Ilmanpaine 1014 hPa
Näkyvyys 10 km tai enemmän
Hajanaisia pilviä 3300 ft:n korkeudessa

METAR: DTTA 271400Z 31016KT 9999 SCT033 31/13 Q1014 NOSIG

Aika: 15:38 (14:38 UTC)

Sääennuste

Tämä raportti tehtiin 3 tuntia ja 33 minuuttia sitten, kello 11.05 UTC
Ennuste voimassa 27. päivästä klo 12 UTC - 28. päivään klo 12 UTC
Tuuli 15 kn pohjoisen/luoteesta
Näkyvyys 10 km tai enemmän
Hajanaisia pilviä 3300 ft:n korkeudessa
Tulossa
27. päivästä klo 21 UTC - 27. päivään klo 23 UTC
Tuuli 8 kn lännestä
Tulossa
28. päivästä klo 09 UTC - 28. päivään klo 11 UTC
Tuuli 8 kn pohjoisesta

TAF: DTTA 271105Z 2712/2812 33015KT 9999 SCT033 BECMG 2721/2723 28008KT BECMG 2809/2811 36008KT

Säähavainnot ja -ennusteet yli 4000 lentoasemalta (METAR- ja TAF-raportit).

Käytössä olevat sääasemat on merkitty karttaan keltaisilla ja punaisilla pisteillä.

Aseta hiiri pisteen päälle nähdäksesi sääaseman nimen.

Klikkaa sitten nähdäksesi säähavainnot ja -ennusteet.

Kartan vaihtaminen: klikkaa mustalla rastilla varustettuja vihreitä pisteitä, niin voit zoomata sisään; viivalla varustettua vihreää pistettä, niin voit zoomata ulos tai vihreitä nuolia, niin pääset viereisille kartoille.


METAR-TAF: